createdAt,value
2017-12-02T00:00:42.364Z,95306.11
2017-12-02T00:02:21.187Z,95316.42
2017-12-02T00:04:00.974Z,95346.13
2017-12-02T00:05:40.173Z,95383.23
2017-12-02T00:07:24.682Z,95384.28
2017-12-02T00:09:02.782Z,95257.03
2017-12-02T00:10:44.286Z,95169.02
2017-12-02T00:13:26.776Z,95124.68
2017-12-02T00:15:05.899Z,95120.88
2017-12-02T00:16:51.293Z,95146.09
2017-12-02T00:18:27.982Z,95216.76
2017-12-02T00:20:04.633Z,95259.66
2017-12-02T00:21:45.067Z,95248.55
2017-12-02T00:23:23.417Z,95213.23
2017-12-02T00:25:05.807Z,95123.51
2017-12-02T00:26:44.108Z,95063.41
2017-12-02T00:28:26.622Z,95102.85
2017-12-02T00:30:03.319Z,95197.38
2017-12-02T00:31:40.763Z,95214.91
2017-12-02T00:33:19.710Z,95170.17
2017-12-02T00:34:59.112Z,95183.95
2017-12-02T00:36:41.973Z,95356.36
2017-12-02T00:38:21.014Z,95451.30
2017-12-02T00:39:58.721Z,95442.74
2017-12-02T00:41:36.003Z,95440.58
2017-12-02T00:43:15.814Z,95336.08
2017-12-02T00:44:56.495Z,95295.72
2017-12-02T00:46:37.090Z,95295.64
2017-12-02T00:48:20.990Z,95306.06
2017-12-02T00:49:57.862Z,95364.91
2017-12-02T00:51:34.739Z,95393.78
2017-12-02T00:53:14.067Z,95401.83
2017-12-02T00:54:54.077Z,95387.73
2017-12-02T00:56:33.165Z,95413.86
2017-12-02T00:58:09.628Z,95350.20
2017-12-02T00:59:46.421Z,95324.86
2017-12-02T01:01:26.176Z,95321.02
2017-12-02T01:03:04.794Z,95271.09
2017-12-02T01:04:45.073Z,95305.53
2017-12-02T01:06:24.160Z,95283.62
2017-12-02T01:08:04.064Z,95297.38
2017-12-02T01:09:43.669Z,95321.86
2017-12-02T01:11:22.255Z,95300.80
2017-12-02T01:13:00.465Z,95279.67
2017-12-02T01:14:43.573Z,95324.55
2017-12-02T01:16:22.169Z,95408.64
2017-12-02T01:18:00.870Z,95436.63
2017-12-02T01:19:40.465Z,95465.15
2017-12-02T01:21:19.369Z,95440.11
2017-12-02T01:22:59.463Z,95356.25
2017-12-02T01:24:47.266Z,95326.18
2017-12-02T01:26:25.785Z,95348.41
2017-12-02T01:28:04.784Z,95367.38
2017-12-02T01:29:45.785Z,95338.28
2017-12-02T01:31:25.264Z,95337.81
2017-12-02T01:33:03.270Z,95385.94
2017-12-02T01:34:40.140Z,95392.36
2017-12-02T01:36:25.647Z,95352.36
2017-12-02T01:38:04.875Z,95292.89
2017-12-02T01:39:45.573Z,95112.56
2017-12-02T01:41:22.120Z,94979.16
2017-12-02T01:42:59.766Z,94942.73
2017-12-02T01:44:36.275Z,94941.11
2017-12-02T01:46:22.380Z,94994.63
2017-12-02T01:48:01.671Z,95060.66
2017-12-02T01:49:40.208Z,95028.94
2017-12-02T01:51:23.572Z,95038.84
2017-12-02T01:53:04.883Z,95072.61
2017-12-02T01:54:49.370Z,95120.45
2017-12-02T01:56:28.687Z,95196.48
2017-12-02T01:58:09.258Z,95201.11
2017-12-02T01:59:45.667Z,95095.86
2017-12-02T02:01:24.281Z,95067.96
2017-12-02T02:03:02.478Z,95051.62
2017-12-02T02:04:43.780Z,95001.50
2017-12-02T02:06:23.179Z,95028.52
2017-12-02T02:08:02.077Z,95061.08
2017-12-02T02:09:39.854Z,95217.44
2017-12-02T02:11:16.966Z,95310.16
2017-12-02T02:12:55.983Z,95327.81
2017-12-02T02:14:34.981Z,95339.88
2017-12-02T02:16:20.979Z,95295.95
2017-12-02T02:18:00.373Z,95253.40
2017-12-02T02:19:40.079Z,95213.02
2017-12-02T02:21:19.879Z,95125.66
2017-12-02T02:22:58.680Z,95029.16
2017-12-02T02:24:40.878Z,94969.55
2017-12-02T02:26:19.575Z,94937.95
2017-12-02T02:27:57.977Z,94842.60
2017-12-02T02:29:36.176Z,94689.19
2017-12-02T02:31:17.974Z,94547.11
2017-12-02T02:32:57.795Z,94414.95
2017-12-02T02:34:37.533Z,94353.00
2017-12-02T02:36:15.474Z,94241.41
2017-12-02T02:37:54.576Z,94185.99
2017-12-02T02:39:34.686Z,94146.66
2017-12-02T02:41:13.374Z,94106.67
2017-12-02T02:42:51.873Z,94121.57
2017-12-02T02:44:30.890Z,94157.01
2017-12-02T02:46:17.599Z,94175.73
2017-12-02T02:47:57.498Z,94198.44
2017-12-02T02:49:37.601Z,94329.56
2017-12-02T02:51:16.702Z,94393.11
2017-12-02T02:52:55.405Z,94448.75
2017-12-02T02:54:35.618Z,94464.41
2017-12-02T02:56:19.109Z,94417.46
2017-12-02T02:57:58.711Z,94376.87
2017-12-02T02:59:37.029Z,94316.09
2017-12-02T03:01:15.813Z,94311.45
2017-12-02T03:02:54.433Z,94303.44
2017-12-02T03:04:34.382Z,94298.56
2017-12-02T03:06:12.624Z,94335.79
2017-12-02T03:07:51.526Z,94340.97
2017-12-02T03:09:31.127Z,94340.08
2017-12-02T03:11:10.623Z,94349.08
2017-12-02T03:12:50.425Z,94362.27
2017-12-02T03:14:29.927Z,94395.95
2017-12-02T03:16:14.036Z,94415.73
2017-12-02T03:17:53.431Z,94425.59
2017-12-02T03:19:32.320Z,94396.52
2017-12-02T03:21:11.416Z,94394.37
2017-12-02T03:22:49.817Z,94403.39
2017-12-02T03:24:29.315Z,94432.75
2017-12-02T03:26:08.120Z,94437.11
2017-12-02T03:27:46.516Z,94449.53
2017-12-02T03:29:26.023Z,94408.46
2017-12-02T03:31:06.421Z,94456.75
2017-12-02T03:32:47.134Z,94499.45
2017-12-02T03:34:26.116Z,94499.56
2017-12-02T03:36:04.620Z,94393.80
2017-12-02T03:37:43.518Z,94306.78
2017-12-02T03:39:23.426Z,94275.13
2017-12-02T03:41:02.724Z,94271.66
2017-12-02T03:42:43.015Z,94284.38
2017-12-02T03:44:24.315Z,94318.60
2017-12-02T03:46:04.617Z,94330.61
2017-12-02T03:47:41.750Z,94404.95
2017-12-02T03:49:19.822Z,94478.19
2017-12-02T03:50:58.727Z,94506.70
2017-12-02T03:52:39.023Z,94506.75
2017-12-02T03:54:17.428Z,94450.61
2017-12-02T03:55:56.330Z,94440.83
2017-12-02T03:57:35.936Z,94453.23
2017-12-02T03:59:15.338Z,94487.52
2017-12-02T04:00:54.150Z,94504.22
2017-12-02T04:02:32.955Z,94566.65
2017-12-02T04:04:12.753Z,94613.64
2017-12-02T04:05:51.858Z,94659.01
2017-12-02T04:07:30.352Z,94683.82
2017-12-02T04:09:10.358Z,94698.98
2017-12-02T04:10:48.559Z,94694.27
2017-12-02T04:12:27.962Z,94773.05
2017-12-02T04:14:07.366Z,94866.94
2017-12-02T04:15:46.864Z,94924.45
2017-12-02T04:17:26.379Z,94931.80
2017-12-02T04:19:12.486Z,94903.44
2017-12-02T04:20:50.969Z,94861.73
2017-12-02T04:22:31.987Z,94800.50
2017-12-02T04:24:12.379Z,94791.92
2017-12-02T04:25:52.868Z,94843.41
2017-12-02T04:27:31.366Z,94829.64
2017-12-02T04:29:10.159Z,94812.94
2017-12-02T04:30:50.457Z,94803.19
2017-12-02T04:32:28.953Z,94751.63
2017-12-02T04:34:07.850Z,94724.27
2017-12-02T04:35:48.547Z,94699.88
2017-12-02T04:37:27.648Z,94668.61
2017-12-02T04:39:08.048Z,94642.44
2017-12-02T04:40:47.558Z,94600.06
2017-12-02T04:42:26.950Z,94576.05
2017-12-02T04:44:06.045Z,94548.63
2017-12-02T04:45:45.350Z,94566.70
2017-12-02T04:47:25.747Z,94548.78
2017-12-02T04:49:05.478Z,94598.00
2017-12-02T04:50:44.663Z,94679.72
2017-12-02T04:52:23.250Z,94739.30
2017-12-02T04:54:02.455Z,94770.09
2017-12-02T04:55:41.950Z,94788.10
2017-12-02T04:57:21.462Z,94799.61
2017-12-02T04:58:59.950Z,94794.83
2017-12-02T05:00:39.242Z,94779.55
2017-12-02T05:02:18.445Z,94768.21
2017-12-02T05:03:56.940Z,94784.22
2017-12-02T05:05:36.342Z,94794.41
2017-12-02T05:07:15.637Z,94812.94
2017-12-02T05:08:55.441Z,94813.30
2017-12-02T05:10:34.035Z,94823.66
2017-12-02T05:12:12.334Z,94793.99
2017-12-02T05:13:50.635Z,94780.81
2017-12-02T05:15:31.244Z,94801.70
2017-12-02T05:17:10.033Z,94799.19
2017-12-02T05:18:49.539Z,94778.60
2017-12-02T05:20:28.440Z,94762.33
2017-12-02T05:22:06.859Z,94740.24
2017-12-02T05:23:45.140Z,94735.98
2017-12-02T05:25:25.237Z,94743.59
2017-12-02T05:27:04.241Z,94758.50
2017-12-02T05:28:43.237Z,94762.38
2017-12-02T05:30:24.206Z,94757.72
2017-12-02T05:32:03.334Z,94740.55
2017-12-02T05:33:42.535Z,94680.14
2017-12-02T05:35:21.841Z,94689.69
2017-12-02T05:37:00.148Z,94779.55
2017-12-02T05:38:40.859Z,94795.09
2017-12-02T05:40:20.652Z,94853.33
2017-12-02T05:42:01.165Z,94803.85
2017-12-02T05:43:39.558Z,94707.58
2017-12-02T05:45:19.959Z,94629.69
2017-12-02T05:46:59.970Z,94526.50
2017-12-02T05:48:40.762Z,94442.34
2017-12-02T05:50:21.369Z,94384.17
2017-12-02T05:52:01.666Z,94385.42
2017-12-02T05:53:40.669Z,94387.16
2017-12-02T05:55:20.068Z,94413.65
2017-12-02T05:58:51.068Z,94555.28
2017-12-02T06:00:32.667Z,94620.30
2017-12-02T06:02:11.074Z,94642.38
2017-12-02T06:03:51.077Z,94634.77
2017-12-02T06:05:29.686Z,94624.98
2017-12-02T06:07:09.179Z,94587.68
2017-12-02T06:08:48.672Z,94545.73
2017-12-02T06:10:27.171Z,94551.19
2017-12-02T06:12:07.570Z,94560.68
2017-12-02T06:13:47.672Z,94575.63
2017-12-02T06:15:28.470Z,94591.56
2017-12-02T06:17:07.161Z,94613.37
2017-12-02T06:18:46.379Z,94623.13
2017-12-02T06:20:25.066Z,94483.37
2017-12-02T06:22:04.563Z,94257.22
2017-12-02T06:23:43.166Z,94162.66
2017-12-02T06:25:24.487Z,93971.16
2017-12-02T06:27:02.966Z,93862.86
2017-12-02T06:28:41.968Z,93807.67
2017-12-02T06:30:25.670Z,93826.75
2017-12-02T06:32:04.161Z,93832.22
2017-12-02T06:33:43.264Z,93853.98
2017-12-02T06:35:23.170Z,93928.54
2017-12-02T06:37:02.066Z,94011.04
2017-12-02T06:38:40.360Z,94113.16
2017-12-02T06:40:20.359Z,94344.48
2017-12-02T06:41:58.867Z,94497.95
2017-12-02T06:43:39.472Z,94658.44
2017-12-02T06:45:20.380Z,94743.95
2017-12-02T06:47:00.480Z,94839.55
2017-12-02T06:48:39.788Z,94854.59
2017-12-02T06:50:18.491Z,94847.71
2017-12-02T06:51:57.390Z,94831.37
2017-12-02T06:53:37.393Z,94817.29
2017-12-02T06:55:17.097Z,94765.84
2017-12-02T06:56:56.597Z,94678.83
2017-12-02T06:58:35.701Z,94652.34
2017-12-02T07:00:16.501Z,94586.84
2017-12-02T07:01:55.805Z,94533.00
2017-12-02T07:03:33.246Z,94533.63
2017-12-02T07:05:12.210Z,94551.19
2017-12-02T07:06:51.909Z,94562.35
2017-12-02T07:08:31.613Z,94582.97
2017-12-02T07:10:11.723Z,94579.56
2017-12-02T07:11:52.418Z,94527.39
2017-12-02T07:13:29.495Z,94485.52
2017-12-02T07:15:09.029Z,94455.14
2017-12-02T07:16:48.420Z,94423.03
2017-12-02T07:18:29.623Z,94428.22
2017-12-02T07:20:13.115Z,94448.75
2017-12-02T07:21:52.025Z,94453.41
2017-12-02T07:23:30.907Z,94399.13
2017-12-02T07:25:09.409Z,94355.89
2017-12-02T07:26:48.506Z,94311.95
2017-12-02T07:28:27.608Z,94263.23
2017-12-02T07:30:06.312Z,94239.75
2017-12-02T07:31:45.212Z,94249.55
2017-12-02T07:33:30.711Z,94302.97
2017-12-02T07:35:10.617Z,94338.62
2017-12-02T07:36:50.917Z,94285.95
2017-12-02T07:38:29.715Z,94219.56
2017-12-02T07:40:10.337Z,94178.77
2017-12-02T07:41:49.816Z,94165.48
2017-12-02T07:43:28.616Z,94139.03
2017-12-02T07:45:08.222Z,94115.09
2017-12-02T07:46:47.419Z,94065.69
2017-12-02T07:48:28.925Z,94067.83
2017-12-02T07:50:09.128Z,94042.28
2017-12-02T07:51:48.519Z,94021.38
2017-12-02T07:53:27.342Z,94034.14
2017-12-02T07:55:06.915Z,94087.06
2017-12-02T07:56:47.416Z,94163.08
2017-12-02T07:58:26.311Z,94209.05
2017-12-02T08:00:09.091Z,94182.69
2017-12-02T08:01:50.006Z,94145.47
2017-12-02T08:03:29.105Z,94148.44
2017-12-02T08:05:07.831Z,94183.43
2017-12-02T08:06:47.401Z,94204.86
2017-12-02T08:08:27.201Z,94254.84
2017-12-02T08:10:05.815Z,94309.94
2017-12-02T08:11:44.601Z,94355.57
2017-12-02T08:13:23.805Z,94438.95
2017-12-02T08:15:03.102Z,94515.94
2017-12-02T08:16:43.198Z,94589.52
2017-12-02T08:18:21.899Z,94521.48
2017-12-02T08:20:01.606Z,94589.11
2017-12-02T08:21:41.505Z,94679.48
2017-12-02T08:23:24.224Z,94757.86
2017-12-02T08:25:04.622Z,94835.90
2017-12-02T08:26:41.747Z,94847.44
2017-12-02T08:28:20.819Z,94825.50
2017-12-02T08:29:59.827Z,94792.46
2017-12-02T08:31:38.171Z,94727.84
2017-12-02T08:33:16.833Z,94724.92
2017-12-02T08:34:56.774Z,94789.16
2017-12-02T08:36:37.148Z,94784.39
2017-12-02T08:38:16.486Z,94721.76
2017-12-02T08:39:55.554Z,94654.14
2017-12-02T08:41:34.548Z,94561.00
2017-12-02T08:43:15.394Z,94491.18
2017-12-02T08:44:55.854Z,94428.78
2017-12-02T08:46:36.850Z,94408.64
2017-12-02T08:49:59.885Z,94465.93
2017-12-02T08:51:40.756Z,94417.10
2017-12-02T08:53:21.060Z,94359.02
2017-12-02T08:55:01.064Z,94293.34
2017-12-02T08:56:43.761Z,94253.41
2017-12-02T08:58:26.062Z,94229.56
2017-12-02T09:00:05.448Z,94189.03
2017-12-02T09:01:44.853Z,94212.09
2017-12-02T09:03:24.350Z,94222.81
2017-12-02T09:05:03.447Z,94250.02
2017-12-02T09:06:42.751Z,94268.13
2017-12-02T09:08:22.946Z,94417.28
2017-12-02T09:10:02.978Z,94445.03
2017-12-02T09:11:43.066Z,94435.08
2017-12-02T09:13:21.373Z,94437.76
2017-12-02T09:15:01.455Z,94434.77
2017-12-02T09:16:41.248Z,94407.27
2017-12-02T09:18:22.544Z,94389.47
2017-12-02T09:20:01.740Z,94381.81
2017-12-02T09:21:40.758Z,94363.02
2017-12-02T09:23:19.538Z,94327.89
2017-12-02T09:24:59.345Z,94314.70
2017-12-02T09:26:38.441Z,94222.39
2017-12-02T09:28:17.845Z,94212.92
2017-12-02T09:29:56.744Z,94293.76
2017-12-02T09:31:36.646Z,94314.22
2017-12-02T09:33:17.749Z,94361.64
2017-12-02T09:34:55.301Z,94317.11
2017-12-02T09:36:33.000Z,94304.34
2017-12-02T09:38:12.268Z,94301.98
2017-12-02T09:39:51.874Z,94299.84
2017-12-02T09:41:35.375Z,94322.35
2017-12-02T09:43:14.773Z,94330.98
2017-12-02T09:44:53.882Z,94377.94
2017-12-02T09:46:32.975Z,94335.58
2017-12-02T09:48:18.594Z,94318.16
2017-12-02T09:49:58.114Z,94306.13
2017-12-02T09:51:39.113Z,94280.42
2017-12-02T09:53:18.308Z,94261.33
2017-12-02T09:54:57.089Z,94277.17
2017-12-02T09:56:37.291Z,94328.31
2017-12-02T09:58:17.099Z,94412.30
2017-12-02T09:59:57.097Z,94437.39
2017-12-02T10:01:45.396Z,94452.69
2017-12-02T10:03:24.899Z,94449.33
2017-12-02T10:05:04.198Z,94389.89
2017-12-02T10:06:44.195Z,94391.56
2017-12-02T10:08:23.598Z,94329.68
2017-12-02T10:10:00.444Z,94310.47
2017-12-02T10:11:39.390Z,94327.53
2017-12-02T10:13:17.782Z,94352.29
2017-12-02T10:14:56.582Z,94332.30
2017-12-02T10:16:36.102Z,94298.59
2017-12-02T10:18:15.079Z,94341.71
2017-12-02T10:19:54.402Z,94354.97
2017-12-02T10:21:34.282Z,94298.52
2017-12-02T10:23:14.036Z,94307.48
2017-12-02T10:24:53.584Z,94342.48
2017-12-02T10:26:32.580Z,94381.40
2017-12-02T10:28:11.773Z,94380.56
2017-12-02T10:29:50.677Z,94384.02
2017-12-02T10:31:31.371Z,94354.49
2017-12-02T10:33:11.575Z,94337.95
2017-12-02T10:34:51.807Z,94331.94
2017-12-02T10:36:32.900Z,94339.98
2017-12-02T10:38:11.875Z,94346.21
2017-12-02T10:39:51.089Z,94333.19
2017-12-02T10:41:31.808Z,94316.13
2017-12-02T10:43:11.476Z,94257.14
2017-12-02T10:44:50.368Z,94244.27
2017-12-02T10:46:29.364Z,94268.23
2017-12-02T10:48:09.691Z,94271.70
2017-12-02T10:49:47.264Z,94312.31
2017-12-02T10:51:27.071Z,94353.66
2017-12-02T10:53:05.562Z,94410.16
2017-12-02T10:54:44.971Z,94431.26
2017-12-02T10:56:24.268Z,94521.27
2017-12-02T10:58:03.174Z,94598.23
2017-12-02T10:59:43.364Z,94656.40
2017-12-02T11:01:24.563Z,94745.49
2017-12-02T11:03:04.958Z,94794.42
2017-12-02T11:04:44.068Z,94822.23
2017-12-02T11:06:22.281Z,94883.17
2017-12-02T11:08:00.687Z,94879.28
2017-12-02T11:09:40.380Z,94869.09
2017-12-02T11:11:18.970Z,94856.13
2017-12-02T11:12:58.572Z,94804.34
2017-12-02T11:14:39.872Z,94724.70
2017-12-02T11:16:21.281Z,94698.16
2017-12-02T11:18:00.187Z,94680.21
2017-12-02T11:19:38.805Z,94690.39
2017-12-02T11:21:17.486Z,94759.77
2017-12-02T11:22:56.891Z,94856.63
2017-12-02T11:24:37.774Z,94891.95
2017-12-02T11:26:16.997Z,94764.13
2017-12-02T11:27:55.801Z,94607.78
2017-12-02T11:29:36.262Z,94583.93
2017-12-02T11:31:15.421Z,94612.49
2017-12-02T11:32:54.110Z,94784.34
2017-12-02T11:34:32.418Z,94930.97
2017-12-02T11:36:12.412Z,95047.98
2017-12-02T11:37:52.030Z,95081.75
2017-12-02T11:39:31.713Z,95059.09
2017-12-02T11:41:10.527Z,95021.44
2017-12-02T11:42:50.051Z,95041.11
2017-12-02T11:44:29.212Z,94987.05
2017-12-02T11:46:14.834Z,94961.83
2017-12-02T11:47:54.530Z,94956.16
2017-12-02T11:49:33.927Z,94972.45
2017-12-02T11:51:12.513Z,94954.56
2017-12-02T11:52:51.633Z,94816.80
2017-12-02T11:54:30.717Z,94773.53
2017-12-02T11:56:09.222Z,94719.63
2017-12-02T11:57:48.330Z,94739.78
2017-12-02T11:59:27.539Z,94780.94
2017-12-02T12:01:06.919Z,94770.27
2017-12-02T12:02:47.037Z,94741.92
2017-12-02T12:04:26.615Z,94846.83
2017-12-02T12:06:07.522Z,94879.48
2017-12-02T12:07:46.119Z,94849.45
2017-12-02T12:09:25.359Z,94892.93
2017-12-02T12:11:04.120Z,94853.45
2017-12-02T12:12:44.523Z,94920.73
2017-12-02T12:14:23.371Z,94834.95
2017-12-02T12:16:03.300Z,94776.78
2017-12-02T12:17:48.128Z,94805.96
2017-12-02T12:19:28.523Z,94829.34
2017-12-02T12:22:55.117Z,94883.12
2017-12-02T12:24:34.618Z,94850.88
2017-12-02T12:26:13.957Z,94749.75
2017-12-02T12:27:54.217Z,94862.16
2017-12-02T12:29:35.116Z,94975.28
2017-12-02T12:31:17.756Z,95041.78
2017-12-02T12:32:57.207Z,95113.38
2017-12-02T12:34:37.920Z,95155.50
2017-12-02T12:36:21.508Z,95133.61
2017-12-02T12:38:01.109Z,95016.44
2017-12-02T12:39:44.062Z,94931.50
2017-12-02T12:41:23.718Z,94861.69
2017-12-02T12:43:03.008Z,94737.20
2017-12-02T12:44:41.508Z,94688.50
2017-12-02T12:46:20.510Z,94709.08
2017-12-02T12:48:01.818Z,94716.42
2017-12-02T12:49:46.533Z,94613.50
2017-12-02T12:51:25.759Z,94547.54
2017-12-02T12:53:04.894Z,94555.77
2017-12-02T12:54:46.321Z,94552.58
2017-12-02T12:56:26.502Z,94610.09
2017-12-02T12:58:11.432Z,94672.14
2017-12-02T12:59:52.317Z,94704.77
2017-12-02T13:01:34.282Z,94704.77
2017-12-02T13:03:16.245Z,94760.08
2017-12-02T13:05:03.625Z,94834.59
2017-12-02T13:06:44.737Z,94870.41
2017-12-02T13:08:24.182Z,94874.45
2017-12-02T13:10:04.352Z,94835.02
2017-12-02T13:11:43.393Z,94814.89
2017-12-02T13:13:32.360Z,94796.88
2017-12-02T13:15:11.581Z,94803.76
2017-12-02T13:16:51.566Z,94816.58
2017-12-02T13:18:28.681Z,94813.95
2017-12-02T13:20:05.464Z,94771.28
2017-12-02T13:21:54.276Z,94742.19
2017-12-02T13:23:35.460Z,94744.19
2017-12-02T13:25:20.832Z,94744.19
2017-12-02T13:26:59.966Z,94736.09
2017-12-02T13:28:40.337Z,94745.14
2017-12-02T13:30:21.996Z,94724.93
2017-12-02T13:32:04.398Z,94715.52
2017-12-02T13:33:45.868Z,94653.84
2017-12-02T13:35:24.568Z,94564.69
2017-12-02T13:37:07.716Z,94529.31
2017-12-02T13:38:50.296Z,94511.27
2017-12-02T13:40:29.134Z,94543.42
2017-12-02T13:42:07.541Z,94562.12
2017-12-02T13:43:54.254Z,94537.42
2017-12-02T13:45:33.572Z,94526.27
2017-12-02T13:47:15.953Z,94529.78
2017-12-02T13:49:00.622Z,94588.77
2017-12-02T13:50:46.268Z,94652.27
2017-12-02T13:52:25.824Z,94677.45
2017-12-02T13:54:07.672Z,94738.78
2017-12-02T13:55:47.242Z,94829.54
2017-12-02T13:57:26.628Z,94873.20
2017-12-02T13:59:06.527Z,94876.34
2017-12-02T14:00:46.940Z,94919.67
2017-12-02T14:02:28.918Z,94957.78
2017-12-02T14:04:08.577Z,94972.88
2017-12-02T14:05:50.950Z,95060.61
2017-12-02T14:07:30.489Z,95105.26
2017-12-02T14:09:12.511Z,95096.27
2017-12-02T14:10:57.404Z,95056.77
2017-12-02T14:12:37.291Z,94965.13
2017-12-02T14:14:28.028Z,94858.28
2017-12-02T14:16:14.243Z,94827.50
2017-12-02T14:17:55.479Z,94854.96
2017-12-02T14:19:35.571Z,94898.23
2017-12-02T14:21:17.425Z,94969.08
2017-12-02T14:22:57.714Z,94951.84
2017-12-02T14:24:38.788Z,94811.85
2017-12-02T14:26:20.788Z,94807.39
2017-12-02T14:28:02.841Z,94958.20
2017-12-02T14:29:43.490Z,95034.05
2017-12-02T14:31:35.055Z,95111.41
2017-12-02T14:33:19.523Z,95082.12
2017-12-02T14:34:58.965Z,95085.17
2017-12-02T14:36:39.187Z,95119.61
2017-12-02T14:38:18.403Z,95070.53
2017-12-02T14:39:57.401Z,95031.20
2017-12-02T14:41:37.849Z,95041.89
2017-12-02T14:43:19.125Z,95054.34
2017-12-02T14:44:59.532Z,95056.83
2017-12-02T14:46:44.175Z,95022.53
2017-12-02T14:48:25.801Z,94974.97
2017-12-02T14:50:06.771Z,95001.20
2017-12-02T14:51:46.121Z,95020.91
2017-12-02T14:53:25.366Z,95037.89
2017-12-02T14:55:06.963Z,95074.06
2017-12-02T14:56:48.080Z,95009.34
2017-12-02T14:58:30.301Z,95054.92
2017-12-02T15:00:08.977Z,95054.81
2017-12-02T15:01:48.601Z,95157.08
2017-12-02T15:03:27.785Z,95246.86
2017-12-02T15:05:07.819Z,95280.30
2017-12-02T15:06:54.385Z,95304.84
2017-12-02T15:08:35.172Z,95217.12
2017-12-02T15:10:12.300Z,95203.42
2017-12-02T15:11:49.940Z,95155.30
2017-12-02T15:15:24.789Z,95123.00
2017-12-02T15:17:06.089Z,95113.20
2017-12-02T15:18:57.350Z,95077.11
2017-12-02T15:20:41.539Z,95058.98
2017-12-02T15:22:22.493Z,95074.17
2017-12-02T15:24:05.067Z,95079.59
2017-12-02T15:25:43.532Z,95135.56
2017-12-02T15:27:21.456Z,95191.00
2017-12-02T15:29:01.880Z,95197.85
2017-12-02T15:30:43.764Z,95135.62
2017-12-02T15:32:25.919Z,95044.88
2017-12-02T15:34:05.484Z,95115.95
2017-12-02T15:35:46.324Z,95041.05
2017-12-02T15:37:32.842Z,94924.15
2017-12-02T15:39:15.573Z,94935.13
2017-12-02T15:41:05.190Z,95008.08
2017-12-02T15:42:45.474Z,95047.09
2017-12-02T15:44:24.388Z,95047.45
2017-12-02T15:46:07.619Z,95109.79
2017-12-02T15:47:46.974Z,95136.45
2017-12-02T15:49:28.406Z,95117.52
2017-12-02T15:54:37.007Z,95184.95
2017-12-02T15:56:16.150Z,95142.45
2017-12-02T15:57:52.840Z,95108.36
2017-12-02T15:59:30.143Z,95083.18
2017-12-02T16:02:53.203Z,94963.50
2017-12-02T16:04:34.514Z,94951.01
2017-12-02T16:06:14.599Z,94968.23
2017-12-02T16:07:56.935Z,94922.78
2017-12-02T16:09:37.416Z,94889.38
2017-12-02T16:11:17.813Z,94946.48
2017-12-02T16:12:58.915Z,95016.33
2017-12-02T16:14:40.013Z,95065.97
2017-12-02T16:16:20.864Z,95110.73
2017-12-02T16:18:04.083Z,95044.94
2017-12-02T16:19:52.112Z,94920.27
2017-12-02T16:21:37.858Z,95037.00
2017-12-02T16:23:18.717Z,95137.77
2017-12-02T16:24:59.849Z,95134.78
2017-12-02T16:26:38.689Z,95110.20
2017-12-02T16:28:18.543Z,95019.29
2017-12-02T16:29:59.869Z,94984.53
2017-12-02T16:31:40.203Z,94927.61
2017-12-02T16:33:20.065Z,94961.35
2017-12-02T16:35:02.781Z,94948.58
2017-12-02T16:36:46.193Z,94960.98
2017-12-02T16:38:25.970Z,94965.66
2017-12-02T16:40:04.158Z,94963.09
2017-12-02T16:41:41.361Z,94940.86
2017-12-02T16:43:23.271Z,94910.76
2017-12-02T16:45:05.286Z,94885.44
2017-12-02T16:46:50.662Z,94809.59
2017-12-02T16:48:41.320Z,94654.58
2017-12-02T16:50:22.774Z,94558.27
2017-12-02T16:52:04.432Z,94525.81
2017-12-02T16:53:51.613Z,94526.17
2017-12-02T16:55:32.069Z,94524.80
2017-12-02T16:57:18.753Z,94524.92
2017-12-02T16:59:05.721Z,94571.93
2017-12-02T17:00:56.854Z,94592.84
2017-12-02T17:02:37.294Z,94643.78
2017-12-02T17:04:24.917Z,94676.88
2017-12-02T17:06:17.005Z,94714.91
2017-12-02T17:07:54.830Z,94810.91
2017-12-02T17:09:37.437Z,94848.62
2017-12-02T17:11:16.277Z,94941.28
2017-12-02T17:13:00.173Z,94963.98
2017-12-02T17:14:38.121Z,94971.28
2017-12-02T17:16:15.850Z,94944.22
2017-12-02T17:17:54.990Z,94979.86
2017-12-02T17:19:34.032Z,95009.39
2017-12-02T17:21:17.823Z,95018.81
2017-12-02T17:22:59.327Z,94993.89
2017-12-02T17:24:38.136Z,94990.52
2017-12-02T17:31:36.152Z,95021.53
2017-12-02T17:33:14.094Z,95019.80
2017-12-02T17:34:52.524Z,95014.54
2017-12-02T17:36:35.222Z,94901.82
2017-12-02T17:38:20.052Z,94821.30
2017-12-02T17:40:00.442Z,94801.94
2017-12-02T17:41:39.636Z,94910.48
2017-12-02T17:43:20.061Z,94883.43
2017-12-02T17:44:59.063Z,94802.84
2017-12-02T17:46:41.331Z,94868.84
2017-12-02T17:48:20.430Z,94771.90
2017-12-02T17:49:58.502Z,94773.63
2017-12-02T17:51:35.053Z,94778.38
2017-12-02T17:53:13.529Z,94809.66
2017-12-02T17:54:52.436Z,94748.80
2017-12-02T17:56:29.236Z,94636.22
2017-12-02T17:58:16.815Z,94742.47
2017-12-02T17:59:56.241Z,94796.84
2017-12-02T18:01:35.636Z,94847.00
2017-12-02T18:03:17.337Z,94908.27
2017-12-02T18:04:54.307Z,94912.64
2017-12-02T18:06:33.322Z,94871.83
2017-12-02T18:08:11.716Z,94916.02
2017-12-02T18:09:50.424Z,94946.91
2017-12-02T18:11:31.116Z,94944.27
2017-12-02T18:13:10.608Z,94912.97
2017-12-02T18:14:51.023Z,94900.25
2017-12-02T18:16:30.600Z,94842.16
2017-12-02T18:18:09.898Z,94767.66
2017-12-02T18:19:49.198Z,94729.23
2017-12-02T18:21:30.188Z,94864.57
2017-12-02T18:23:08.995Z,94756.90
2017-12-02T18:24:50.842Z,94768.07
2017-12-02T18:26:32.792Z,94820.88
2017-12-02T18:28:09.521Z,94861.64
2017-12-02T18:29:47.850Z,94905.70
2017-12-02T18:31:28.784Z,94982.91
2017-12-02T18:33:08.388Z,94951.73
2017-12-02T18:34:45.378Z,94960.30
2017-12-02T18:36:22.374Z,94976.59
2017-12-02T18:38:01.329Z,95020.60
2017-12-02T18:39:40.203Z,95043.38
2017-12-02T18:42:50.613Z,95050.73
2017-12-02T18:44:30.719Z,95052.77
2017-12-02T18:46:11.626Z,95031.73
2017-12-02T18:47:57.633Z,95062.34
2017-12-02T18:49:39.338Z,95070.81
2017-12-02T18:51:24.864Z,95012.50
2017-12-02T18:53:06.186Z,95068.13
2017-12-02T18:54:49.649Z,95100.05
2017-12-02T18:56:28.354Z,95133.94
2017-12-02T18:58:07.865Z,95137.35
2017-12-02T18:59:46.260Z,95087.02
2017-12-02T19:01:35.779Z,95031.27
2017-12-02T19:03:14.569Z,94993.63
2017-12-02T19:04:53.578Z,94881.34
2017-12-02T19:06:37.976Z,94936.70
2017-12-02T19:08:27.988Z,94917.33
2017-12-02T19:10:09.792Z,94972.65
2017-12-02T19:11:49.081Z,95008.66
2017-12-02T19:13:27.975Z,95036.05
2017-12-02T19:17:13.974Z,95003.52
2017-12-02T19:18:55.973Z,94914.28
2017-12-02T19:20:34.166Z,94954.78
2017-12-02T19:22:12.860Z,94940.50
2017-12-02T19:23:52.368Z,94993.31
2017-12-02T19:25:33.965Z,95038.73
2017-12-02T19:27:15.563Z,95127.56
2017-12-02T19:28:56.617Z,95146.87
2017-12-02T19:30:35.569Z,95134.78
2017-12-02T19:32:14.368Z,95184.66
2017-12-02T19:33:54.591Z,95225.85
2017-12-02T19:35:36.972Z,95224.64
2017-12-02T19:37:16.280Z,95231.59
2017-12-02T19:38:55.569Z,95173.48
2017-12-02T19:40:37.579Z,95176.17
2017-12-02T19:42:24.873Z,95172.65
2017-12-02T19:44:03.687Z,95132.29
2017-12-02T19:45:43.072Z,95154.77
2017-12-02T19:47:21.668Z,95151.66
2017-12-02T19:49:01.887Z,95140.04
2017-12-02T19:52:13.688Z,95050.31
2017-12-02T19:53:57.388Z,95030.11
2017-12-02T19:55:37.671Z,94998.88
2017-12-02T19:57:16.801Z,94995.47
2017-12-02T19:58:56.601Z,95075.17
2017-12-02T20:00:39.267Z,95094.91